createdAt,value
2016-06-06T08:40:15.527Z,21.82
2016-06-06T08:41:15.608Z,21.82
2016-06-06T08:42:15.564Z,21.8
2016-06-06T08:43:15.567Z,21.98
2016-06-06T08:44:16.303Z,22
2016-06-06T08:45:15.588Z,21.98
2016-06-06T08:46:15.590Z,21.91
2016-06-06T08:47:15.827Z,22.07
2016-06-06T08:48:15.643Z,22.14
2016-06-06T08:50:15.194Z,22.18
2016-06-06T08:51:15.901Z,22.22
2016-06-06T08:52:15.747Z,22.22
2016-06-06T08:53:15.906Z,22.28
2016-06-06T08:54:15.721Z,22.35
2016-06-06T08:55:15.755Z,22.35
2016-06-06T08:56:15.960Z,22.33
2016-06-06T08:57:15.948Z,22.37
2016-06-06T08:58:15.950Z,22.47
2016-06-06T08:59:15.798Z,22.52
2016-06-06T09:00:15.815Z,22.54
2016-06-06T09:01:15.849Z,22.51
2016-06-06T09:02:15.837Z,22.55
2016-06-06T09:03:15.839Z,22.61
2016-06-06T09:04:15.842Z,22.61
2016-06-06T09:05:15.876Z,22.7
2016-06-06T09:06:15.878Z,22.75
2016-06-06T09:07:16.115Z,22.76
2016-06-06T09:08:15.961Z,22.8
2016-06-06T09:09:15.840Z,22.85
2016-06-06T09:10:15.952Z,22.82
2016-06-06T09:11:16.158Z,22.76
2016-06-06T09:12:15.958Z,22.88
2016-06-06T09:13:15.960Z,22.9
2016-06-06T09:14:16.525Z,23.02
2016-06-06T09:15:16.215Z,23
2016-06-06T09:16:15.999Z,22.98
2016-06-06T09:17:16.033Z,23.01
2016-06-06T09:18:16.052Z,23.13
2016-06-06T09:19:16.272Z,23.15
2016-06-06T09:20:16.275Z,23.07
2016-06-06T09:22:16.124Z,23.15
2016-06-06T09:23:16.330Z,23.19
2016-06-06T09:24:16.193Z,23.22
2016-06-06T09:25:16.179Z,23.27
2016-06-06T09:26:16.198Z,23.33
2016-06-06T09:27:16.216Z,23.2
2016-06-06T09:28:16.204Z,23.38
2016-06-06T09:29:16.174Z,23.42
2016-06-06T09:30:16.193Z,23.43
2016-06-06T09:31:16.211Z,23.54
2016-06-06T09:32:16.214Z,23.55
2016-06-06T09:33:16.482Z,23.57
2016-06-06T09:34:15.954Z,23.63
2016-06-06T09:35:16.535Z,23.6
2016-06-06T09:36:16.303Z,23.66
2016-06-06T09:37:30.368Z,23.63
2016-06-06T09:38:16.527Z,23.75
2016-06-06T09:39:16.170Z,23.76
2016-06-06T09:40:15.876Z,23.79
2016-06-06T09:41:16.364Z,23.78
2016-06-06T09:42:16.366Z,23.87
2016-06-06T09:43:16.791Z,23.91
2016-06-06T09:44:16.793Z,23.88
2016-06-06T09:46:16.424Z,23.97
2016-06-06T09:47:16.302Z,24
2016-06-06T09:48:16.850Z,24
2016-06-06T09:49:16.494Z,24
2016-06-06T09:50:16.668Z,23.88
2016-06-06T09:51:16.718Z,23.98
2016-06-06T09:52:16.721Z,24.02
2016-06-06T09:53:16.614Z,24.15
2016-06-06T09:54:16.961Z,24.06
2016-06-06T09:55:16.619Z,24.18
2016-06-06T09:56:16.779Z,24.18
2016-06-06T09:57:16.641Z,24.28
2016-06-06T09:58:16.659Z,24.39
2016-06-06T09:59:17.302Z,24.5
2016-06-06T10:00:16.680Z,24.49
2016-06-06T10:01:16.699Z,24.55
2016-06-06T10:02:16.685Z,24.53
2016-06-06T10:03:16.923Z,24.58
2016-06-06T10:04:16.753Z,24.58
2016-06-06T10:05:17.146Z,24.58
2016-06-06T10:06:16.743Z,24.46
2016-06-06T10:07:16.590Z,24.6
2016-06-06T10:08:16.764Z,24.67
2016-06-06T10:09:16.970Z,24.78
2016-06-06T10:10:16.800Z,24.67
2016-06-06T10:11:16.820Z,24.6
2016-06-06T10:12:17.056Z,24.6
2016-06-06T10:13:16.886Z,24.57
2016-06-06T10:14:17.250Z,24.55
2016-06-06T10:15:17.095Z,24.52
2016-06-06T10:16:17.098Z,24.52
2016-06-06T10:17:16.928Z,24.53
2016-06-06T10:18:17.135Z,24.65
2016-06-06T10:19:17.153Z,24.73
2016-06-06T10:20:16.937Z,24.81
2016-06-06T10:21:16.955Z,24.84
2016-06-06T10:22:17.255Z,24.68
2016-06-06T10:23:17.227Z,24.78
2016-06-06T10:24:16.994Z,24.87
2016-06-06T10:25:17.029Z,24.93
2016-06-06T10:26:17.094Z,24.99
2016-06-06T10:27:17.034Z,25.09
2016-06-06T10:28:17.051Z,25.17
2016-06-06T10:29:17.180Z,25.23
2016-06-06T10:30:17.104Z,25.25
2016-06-06T10:31:17.107Z,25.38
2016-06-06T10:32:17.125Z,25.36
2016-06-06T10:33:17.143Z,25.45
2016-06-06T10:34:16.943Z,25.58
2016-06-06T10:35:31.243Z,25.58
2016-06-06T10:36:17.401Z,25.67
2016-06-06T10:37:17.217Z,25.72
2016-06-06T10:38:17.219Z,25.67
2016-06-06T10:39:17.426Z,25.7
2016-06-06T10:40:17.240Z,25.73
2016-06-06T10:41:17.462Z,25.69
2016-06-06T10:42:17.277Z,25.55
2016-06-06T10:43:17.155Z,25.45
2016-06-06T10:44:18.017Z,25.46
2016-06-06T10:45:31.426Z,25.32
2016-06-06T10:46:17.350Z,25.42
2016-06-06T10:47:17.603Z,25.47
2016-06-06T10:48:17.434Z,25.6
2016-06-06T10:49:17.405Z,25.67
2016-06-06T10:50:17.408Z,25.67
2016-06-06T10:51:17.692Z,25.85
2016-06-06T10:52:17.508Z,25.9
2016-06-06T10:53:17.494Z,25.97
2016-06-06T10:54:31.778Z,26.09
2016-06-06T10:55:18.031Z,26.2
2016-06-06T10:56:17.565Z,26.21
2016-06-06T10:57:17.521Z,26.33
2016-06-06T10:58:17.757Z,26.39
2016-06-06T10:59:17.698Z,26.33
2016-06-06T11:00:17.794Z,26.33
2016-06-06T11:01:17.610Z,26.48
2016-06-06T11:02:17.612Z,26.51
2016-06-06T11:03:17.881Z,26.54
2016-06-06T11:04:31.930Z,26.62
2016-06-06T11:05:17.668Z,26.63
2016-06-06T11:06:18.390Z,26.75
2016-06-06T11:07:17.735Z,26.6
2016-06-06T11:08:18.065Z,26.47
2016-06-06T11:09:17.928Z,26.25
2016-06-06T11:10:18.181Z,26.29
2016-06-06T11:11:17.746Z,26.18
2016-06-06T11:12:17.998Z,26.02
2016-06-06T11:13:17.892Z,26.09
2016-06-06T11:14:32.348Z,26.07
2016-06-06T11:15:18.584Z,26.07
2016-06-06T11:16:17.884Z,26.05
2016-06-06T11:17:18.089Z,25.99
2016-06-06T11:18:17.703Z,26.13
2016-06-06T11:19:17.720Z,26.18
2016-06-06T11:20:18.520Z,26.33
2016-06-06T11:21:17.914Z,26.39
2016-06-06T11:22:18.119Z,26.37
2016-06-06T11:23:32.231Z,26.52
2016-06-06T11:24:17.953Z,26.48
2016-06-06T11:25:32.065Z,26.69
2016-06-06T11:26:18.036Z,26.55
2016-06-06T11:27:18.492Z,26.62
2016-06-06T11:28:18.041Z,26.62
2016-06-06T11:29:18.310Z,26.55
2016-06-06T11:30:17.907Z,26.57
2016-06-06T11:31:18.065Z,26.6
2016-06-06T11:32:18.146Z,26.57
2016-06-06T11:33:17.946Z,26.55
2016-06-06T11:34:18.182Z,26.51
2016-06-06T11:35:18.170Z,26.45
2016-06-06T11:36:19.095Z,26.43
2016-06-06T11:37:18.207Z,26.44
2016-06-06T11:38:18.412Z,26.35
2016-06-06T11:39:18.212Z,26.18
2016-06-06T11:40:18.870Z,26.17
2016-06-06T11:41:18.248Z,26.09
2016-06-06T11:42:18.267Z,25.97
2016-06-06T11:43:18.973Z,25.87
2016-06-06T11:44:18.350Z,25.83
2016-06-06T11:46:18.309Z,25.95
2016-06-06T11:47:18.295Z,25.99
2016-06-06T11:48:18.548Z,25.92
2016-06-06T11:49:18.380Z,26.05
2016-06-06T11:50:18.570Z,26.07
2016-06-06T11:51:18.400Z,26.01
2016-06-06T11:52:18.403Z,26.12
2016-06-06T11:53:18.469Z,26.07
2016-06-06T11:54:32.580Z,26.21
2016-06-06T11:55:18.474Z,26.21
2016-06-06T11:56:18.477Z,26.2
2016-06-06T11:57:18.494Z,26.33
2016-06-06T11:58:18.607Z,26.25
2016-06-06T11:59:18.656Z,26.39
2016-06-06T12:00:19.066Z,26.37
2016-06-06T12:02:18.585Z,26.36
2016-06-06T12:03:18.777Z,26.26
2016-06-06T12:04:18.608Z,26.35
2016-06-06T12:05:18.626Z,26.33
2016-06-06T12:06:18.190Z,26.29
2016-06-06T12:07:18.741Z,26.35
2016-06-06T12:08:18.727Z,26.45
2016-06-06T12:09:18.948Z,26.35
2016-06-06T12:10:18.733Z,26.44
2016-06-06T12:11:18.720Z,26.48
2016-06-06T12:12:18.738Z,26.47
2016-06-06T12:13:18.804Z,26.45
2016-06-06T12:14:18.618Z,26.54
2016-06-06T12:15:18.793Z,26.54
2016-06-06T12:16:18.812Z,26.62
2016-06-06T12:17:19.048Z,26.63
2016-06-06T12:18:18.833Z,26.76
2016-06-06T12:19:19.070Z,26.72
2016-06-06T12:20:18.900Z,26.67
2016-06-06T12:21:19.106Z,26.51
2016-06-06T12:22:18.890Z,26.65
2016-06-06T12:23:18.908Z,26.73
2016-06-06T12:24:18.942Z,26.63
2016-06-06T12:25:18.960Z,26.72
2016-06-06T12:26:19.182Z,26.63
2016-06-06T12:27:19.013Z,26.75
2016-06-06T12:28:19.046Z,26.66
2016-06-06T12:29:18.877Z,26.77
2016-06-06T12:30:20.693Z,26.67
2016-06-06T12:31:19.071Z,26.82
2016-06-06T12:32:19.558Z,26.81
2016-06-06T12:33:18.607Z,26.7
2016-06-06T12:34:19.328Z,26.75
2016-06-06T12:35:19.113Z,26.65
2016-06-06T12:36:19.334Z,26.76
2016-06-06T12:37:19.149Z,26.77
2016-06-06T12:38:19.151Z,26.81
2016-06-06T12:39:19.248Z,26.84
2016-06-06T12:40:19.204Z,26.8
2016-06-06T12:41:19.207Z,26.85
2016-06-06T12:42:19.225Z,26.91
2016-06-06T12:43:19.494Z,26.8
2016-06-06T12:44:18.996Z,26.76
2016-06-06T12:45:19.295Z,26.77
2016-06-06T12:46:19.720Z,26.81
2016-06-06T12:47:19.301Z,26.76
2016-06-06T12:48:19.367Z,26.84
2016-06-06T12:49:19.322Z,26.89
2016-06-06T12:50:19.544Z,26.94
2016-06-06T12:51:19.406Z,26.84
2016-06-06T12:52:19.424Z,26.88
2016-06-06T12:53:19.458Z,26.91
2016-06-06T12:54:19.836Z,27.02
2016-06-06T12:55:19.964Z,26.94
2016-06-06T12:56:33.544Z,27.03
2016-06-06T12:57:19.687Z,27.03
2016-06-06T12:58:19.518Z,27
2016-06-06T12:59:19.364Z,26.99
2016-06-06T13:00:19.508Z,27.03
2016-06-06T13:01:19.761Z,27.13
2016-06-06T13:02:19.544Z,27.19
2016-06-06T13:03:19.782Z,27.12
2016-06-06T13:04:19.768Z,27.21
2016-06-06T13:05:19.788Z,27.17
2016-06-06T13:06:20.055Z,27.18
2016-06-06T13:07:19.635Z,27.12
2016-06-06T13:08:34.139Z,27.21
2016-06-06T13:09:19.657Z,27.25
2016-06-06T13:10:19.676Z,27.29
2016-06-06T13:11:19.193Z,27.25
2016-06-06T13:12:19.915Z,27.34
2016-06-06T13:13:19.902Z,27.27
2016-06-06T13:14:21.265Z,27.32
2016-06-06T13:15:19.782Z,27.37
2016-06-06T13:16:19.832Z,27.41
2016-06-06T13:17:20.162Z,27.37
2016-06-06T13:18:19.822Z,27.43
2016-06-06T13:19:19.387Z,27.57
2016-06-06T13:20:20.281Z,27.5
2016-06-06T13:21:19.908Z,27.51
2016-06-06T13:22:20.114Z,27.54
2016-06-06T13:23:20.179Z,27.44
2016-06-06T13:24:20.306Z,27.57
2016-06-06T13:25:19.919Z,27.46
2016-06-06T13:26:19.984Z,27.5
2016-06-06T13:28:19.989Z,27.51
2016-06-06T13:29:21.008Z,27.43
2016-06-06T13:30:20.604Z,27.41
2016-06-06T13:31:20.029Z,27.37
2016-06-06T13:32:20.313Z,27.37
2016-06-06T13:33:20.049Z,27.31
2016-06-06T13:34:19.958Z,27.39
2016-06-06T13:35:20.086Z,27.34
2016-06-06T13:36:20.308Z,27.32
2016-06-06T13:37:20.357Z,27.29
2016-06-06T13:38:20.188Z,27.27
2016-06-06T13:39:20.176Z,27.32
2016-06-06T13:41:34.274Z,27.25
2016-06-06T13:42:34.308Z,27.28
2016-06-06T13:43:20.218Z,27.19
2016-06-06T13:44:20.252Z,27.27
2016-06-06T13:45:21.254Z,27.24
2016-06-06T13:46:20.490Z,27.28
2016-06-06T13:47:20.291Z,27.17
2016-06-06T13:48:34.387Z,27.28
2016-06-06T13:49:20.358Z,27.18
2016-06-06T13:50:20.345Z,27.29
2016-06-06T13:51:20.364Z,27.29
2016-06-06T13:53:21.041Z,27.19
2016-06-06T13:54:20.622Z,27.1
2016-06-06T13:55:20.640Z,27.09
2016-06-06T13:56:20.642Z,27.02
2016-06-06T13:57:20.192Z,27.06
2016-06-06T13:58:20.679Z,27.03
2016-06-06T13:59:21.650Z,27.02
2016-06-06T14:00:22.091Z,27.02
2016-06-06T14:01:20.063Z,27.24
2016-06-06T14:02:21.066Z,27.12
2016-06-06T14:03:20.568Z,27.14
2016-06-06T14:04:20.571Z,27.21
2016-06-06T14:05:20.417Z,27.34
2016-06-06T14:06:20.608Z,27.24
2016-06-06T14:07:20.641Z,27.25
2016-06-06T14:08:20.644Z,27.37
2016-06-06T14:09:20.834Z,27.43
2016-06-06T14:10:20.665Z,27.5
2016-06-06T14:11:20.933Z,27.51
2016-06-06T14:12:20.843Z,27.47
2016-06-06T14:13:20.767Z,27.62
2016-06-06T14:14:21.066Z,27.54
2016-06-06T14:15:21.163Z,27.55
2016-06-06T14:16:20.322Z,27.5
2016-06-06T14:17:20.996Z,27.51
2016-06-06T14:19:20.861Z,27.47
2016-06-06T14:20:20.832Z,27.55
2016-06-06T14:21:21.100Z,27.54
2016-06-06T14:22:21.119Z,27.49
2016-06-06T14:23:20.903Z,27.4
2016-06-06T14:24:21.109Z,27.37
2016-06-06T14:25:20.925Z,27.41
2016-06-06T14:26:20.958Z,27.46
2016-06-06T14:27:20.944Z,27.41
2016-06-06T14:28:20.979Z,27.57
2016-06-06T14:30:22.327Z,27.39
2016-06-06T14:31:21.034Z,27.36
2016-06-06T14:32:21.302Z,27.34
2016-06-06T14:33:21.289Z,27.22
2016-06-06T14:34:21.260Z,27.14
2016-06-06T14:35:21.091Z,27.13
2016-06-06T14:36:21.110Z,27.18
2016-06-06T14:37:21.113Z,27.24
2016-06-06T14:38:21.130Z,27.19
2016-06-06T14:39:21.150Z,27.17
2016-06-06T14:40:21.183Z,27.1
2016-06-06T14:41:21.232Z,27.07
2016-06-06T14:42:21.048Z,27.04
2016-06-06T14:43:21.238Z,27.07
2016-06-06T14:44:21.085Z,27.07
2016-06-06T14:45:21.446Z,27.03
2016-06-06T14:46:35.543Z,26.92
2016-06-06T14:47:21.279Z,26.94
2016-06-06T14:48:21.721Z,26.84
2016-06-06T14:49:21.520Z,26.94
2016-06-06T14:50:21.537Z,26.81
2016-06-06T14:51:21.556Z,26.92
2016-06-06T14:52:21.372Z,26.84
2016-06-06T14:53:21.389Z,26.82
2016-06-06T14:54:21.408Z,26.85
2016-06-06T14:55:21.442Z,26.88
2016-06-06T14:56:21.461Z,26.8
2016-06-06T14:57:21.463Z,26.81
2016-06-06T14:58:21.498Z,26.84
2016-06-06T14:59:22.016Z,26.73
2016-06-06T15:00:21.362Z,26.69
2016-06-06T15:01:21.692Z,26.77
2016-06-06T15:02:21.711Z,26.67
2016-06-06T15:03:21.558Z,26.66
2016-06-06T15:04:21.810Z,26.66
2016-06-06T15:05:21.563Z,26.67
2016-06-06T15:06:35.878Z,26.65
2016-06-06T15:07:21.615Z,26.72
2016-06-06T15:08:21.634Z,26.63
2016-06-06T15:09:35.933Z,26.7
2016-06-06T15:10:21.888Z,26.73
2016-06-06T15:11:21.688Z,26.67
2016-06-06T15:12:21.879Z,26.63
2016-06-06T15:13:21.740Z,26.67
2016-06-06T15:14:36.040Z,26.65
2016-06-06T15:15:22.371Z,26.63
2016-06-06T15:16:35.826Z,26.6
2016-06-06T15:17:21.814Z,26.69
2016-06-06T15:18:21.801Z,26.51
2016-06-06T15:19:21.820Z,26.6
2016-06-06T15:20:21.838Z,26.67
2016-06-06T15:21:21.668Z,26.58
2016-06-06T15:22:21.359Z,26.6
2016-06-06T15:23:21.862Z,26.55
2016-06-06T15:24:22.521Z,26.54
2016-06-06T15:25:21.929Z,26.51
2016-06-06T15:26:35.994Z,26.28
2016-06-06T15:27:21.950Z,26.36
2016-06-06T15:28:22.187Z,26.4
2016-06-06T15:29:35.675Z,26.35
2016-06-06T15:30:22.690Z,26.33
2016-06-06T15:31:22.193Z,26.36
2016-06-06T15:32:21.523Z,26.33
2016-06-06T15:33:22.214Z,26.3
2016-06-06T15:34:22.122Z,26.29
2016-06-06T15:35:22.095Z,26.32
2016-06-06T15:36:22.066Z,26.33
2016-06-06T15:37:22.084Z,26.3
2016-06-06T15:38:22.102Z,26.13
2016-06-06T15:39:22.496Z,26.2
2016-06-06T15:40:22.155Z,26.17
2016-06-06T15:43:22.177Z,26.02
2016-06-06T15:44:22.540Z,26.02
2016-06-06T15:45:22.902Z,26.05
2016-06-06T15:46:22.436Z,25.94
2016-06-06T15:47:22.471Z,25.88
2016-06-06T15:48:22.270Z,25.91
2016-06-06T15:49:22.273Z,25.9
2016-06-06T15:50:22.494Z,25.87
2016-06-06T15:51:36.374Z,25.87
2016-06-06T15:52:22.531Z,25.87
2016-06-06T15:53:22.330Z,25.83
2016-06-06T15:54:22.364Z,25.67
2016-06-06T15:55:22.570Z,25.73
2016-06-06T15:56:22.370Z,25.69
2016-06-06T15:57:22.403Z,25.73
2016-06-06T15:58:22.406Z,25.57
2016-06-06T15:59:22.425Z,25.64
2016-06-06T16:00:36.539Z,25.58
2016-06-06T16:01:22.461Z,25.52
2016-06-06T16:02:22.698Z,25.51
2016-06-06T16:03:36.563Z,25.47
2016-06-06T16:04:22.516Z,25.43
2016-06-06T16:05:22.534Z,25.4
2016-06-06T16:06:22.756Z,25.38
2016-06-06T16:07:22.539Z,25.39
2016-06-06T16:08:22.777Z,25.3
2016-06-06T16:09:22.608Z,25.27
2016-06-06T16:10:22.595Z,25.3
2016-06-06T16:11:22.628Z,25.28
2016-06-06T16:12:22.835Z,25.2
2016-06-06T16:13:23.306Z,25.24
2016-06-06T16:14:36.936Z,25.25
2016-06-06T16:15:22.671Z,25.15
2016-06-06T16:16:22.689Z,25.21
2016-06-06T16:17:22.910Z,25
2016-06-06T16:18:23.147Z,24.99
2016-06-06T16:19:37.216Z,24.9
2016-06-06T16:20:22.935Z,25.02
2016-06-06T16:21:22.984Z,24.88
2016-06-06T16:22:22.768Z,24.87
2016-06-06T16:23:22.786Z,24.77
2016-06-06T16:24:22.820Z,24.84
2016-06-06T16:25:22.323Z,24.77
2016-06-06T16:26:22.373Z,24.65
2016-06-06T16:27:23.062Z,24.61
2016-06-06T16:28:23.065Z,24.57
2016-06-06T16:29:22.912Z,24.57
2016-06-06T16:30:23.523Z,24.6
2016-06-06T16:31:22.932Z,24.57
2016-06-06T16:32:37.000Z,24.5
2016-06-06T16:33:23.156Z,24.45
2016-06-06T16:34:22.956Z,24.45
2016-06-06T16:35:23.365Z,24.42
2016-06-06T16:36:22.993Z,24.35
2016-06-06T16:37:22.995Z,24.22
2016-06-06T16:38:22.983Z,24.24
2016-06-06T16:39:22.548Z,24.22
2016-06-06T16:40:37.553Z,24.28
2016-06-06T16:41:22.881Z,24.21
2016-06-06T16:42:23.056Z,24.24
2016-06-06T16:43:23.141Z,24.2
2016-06-06T16:44:23.118Z,24.16
2016-06-06T16:45:23.453Z,24.2
2016-06-06T16:46:23.571Z,24.22
2016-06-06T16:47:23.172Z,24.21
2016-06-06T16:48:23.380Z,24.09
2016-06-06T16:49:23.416Z,24.13
2016-06-06T16:50:23.200Z,24.16
2016-06-06T16:51:23.252Z,24.1
2016-06-06T16:52:23.225Z,24.06
2016-06-06T16:53:23.244Z,24
2016-06-06T16:54:23.544Z,24.03
2016-06-06T16:55:23.470Z,24
2016-06-06T16:56:23.754Z,24.03
2016-06-06T16:57:23.289Z,24
2016-06-06T16:58:23.371Z,24
2016-06-06T16:59:24.560Z,23.98
2016-06-06T17:00:23.377Z,23.97
2016-06-06T17:01:23.364Z,23.9
2016-06-06T17:02:23.398Z,23.9
2016-06-06T17:03:23.386Z,23.94
2016-06-06T17:04:23.638Z,23.79
2016-06-06T17:05:23.828Z,23.85
2016-06-06T17:06:23.643Z,23.8
2016-06-06T17:07:23.647Z,23.85
2016-06-06T17:08:23.445Z,23.83
2016-06-06T17:09:23.214Z,23.78
2016-06-06T17:10:23.545Z,23.78
2016-06-06T17:11:23.500Z,23.76
2016-06-06T17:12:23.019Z,23.69
2016-06-06T17:13:23.584Z,23.69
2016-06-06T17:14:23.821Z,23.61
2016-06-06T17:15:23.574Z,23.69
2016-06-06T17:16:24.014Z,23.68
2016-06-06T17:18:23.816Z,23.6
2016-06-06T17:19:24.022Z,23.55
2016-06-06T17:20:24.024Z,23.54
2016-06-06T17:21:23.652Z,23.61
2016-06-06T17:22:23.640Z,23.65
2016-06-06T17:23:23.658Z,23.47
2016-06-06T17:24:37.960Z,23.55
2016-06-06T17:25:23.710Z,23.61
2016-06-06T17:26:24.165Z,23.51
2016-06-06T17:27:23.762Z,23.51
2016-06-06T17:28:23.484Z,23.55
2016-06-06T17:29:23.392Z,23.42
2016-06-06T17:30:37.836Z,23.47
2016-06-06T17:31:24.164Z,23.43
2016-06-06T17:32:23.759Z,23.39
2016-06-06T17:33:23.998Z,23.42
2016-06-06T17:34:23.797Z,23.39
2016-06-06T17:35:24.424Z,23.42
2016-06-06T17:36:23.833Z,23.35
2016-06-06T17:37:23.867Z,23.4
2016-06-06T17:38:24.072Z,23.4
2016-06-06T17:39:38.594Z,23.31
2016-06-06T17:40:23.891Z,23.27
2016-06-06T17:41:24.127Z,23.28
2016-06-06T17:42:23.866Z,23.28
2016-06-06T17:43:24.524Z,23.19
2016-06-06T17:44:23.949Z,23.13
2016-06-06T17:45:24.529Z,23.17
2016-06-06T17:46:24.158Z,23.16
2016-06-06T17:47:38.052Z,23.15
2016-06-06T17:48:23.709Z,23.09
2016-06-06T17:49:24.025Z,23.17
2016-06-06T17:50:23.840Z,23.07
2016-06-06T17:51:24.014Z,23.01
2016-06-06T17:52:38.176Z,23.04
2016-06-06T17:53:24.254Z,23.07
2016-06-06T17:54:24.257Z,23.04
2016-06-06T17:55:24.071Z,22.98
2016-06-06T17:56:24.121Z,22.97
2016-06-06T17:57:24.109Z,23
2016-06-06T17:58:24.173Z,22.91
2016-06-06T17:59:24.176Z,22.98
2016-06-06T18:00:24.070Z,22.92
2016-06-06T18:01:24.354Z,22.88
2016-06-06T18:02:24.606Z,22.88
2016-06-06T18:03:24.218Z,22.9
2016-06-06T18:04:23.925Z,22.82
2016-06-06T18:05:24.145Z,22.79
2016-06-06T18:06:24.226Z,22.79
2016-06-06T18:08:24.231Z,22.79
2016-06-06T18:09:24.516Z,22.77
2016-06-06T18:10:24.300Z,22.76
2016-06-06T18:11:27.302Z,22.7
2016-06-06T18:12:24.492Z,22.73
2016-06-06T18:13:24.355Z,22.76
2016-06-06T18:14:24.311Z,22.6
2016-06-06T18:15:24.579Z,22.64
2016-06-06T18:16:24.785Z,22.64
2016-06-06T18:17:23.881Z,22.64
2016-06-06T18:18:24.368Z,22.62
2016-06-06T18:19:24.386Z,22.51
2016-06-06T18:20:24.389Z,22.57
2016-06-06T18:21:24.408Z,22.47
2016-06-06T18:22:24.488Z,22.51
2016-06-06T18:24:24.462Z,22.46
2016-06-06T18:25:24.450Z,22.47
2016-06-06T18:26:24.561Z,22.47
2016-06-06T18:27:24.564Z,22.39
2016-06-06T18:28:24.723Z,22.42
2016-06-06T18:29:25.460Z,22.4
2016-06-06T18:30:25.040Z,22.39
2016-06-06T18:31:24.732Z,22.24
2016-06-06T18:32:24.546Z,22.24
2016-06-06T18:33:24.564Z,22.21
2016-06-06T18:34:24.583Z,22.35
2016-06-06T18:35:24.976Z,22.17
2016-06-06T18:36:24.807Z,22.15
2016-06-06T18:37:24.653Z,22.2
2016-06-06T18:38:24.625Z,22.17
2016-06-06T18:39:24.472Z,22.15
2016-06-06T18:40:24.646Z,22.03
2016-06-06T18:41:24.649Z,22.05
2016-06-06T18:42:24.714Z,22.05
2016-06-06T18:43:24.872Z,21.94
2016-06-06T18:44:24.939Z,22
2016-06-06T18:45:25.519Z,22.02
2016-06-06T18:46:24.725Z,21.99
2016-06-06T18:48:24.886Z,21.94
2016-06-06T18:49:24.999Z,21.86
2016-06-06T18:50:24.829Z,21.86
2016-06-06T18:51:24.894Z,21.82
2016-06-06T18:52:24.835Z,21.82
2016-06-06T18:53:24.682Z,21.86
2016-06-06T18:54:24.809Z,21.8
2016-06-06T18:55:26.342Z,21.75
2016-06-06T18:56:24.986Z,21.69
2016-06-06T18:57:25.973Z,21.69
2016-06-06T18:58:24.866Z,21.65
2016-06-06T18:59:25.604Z,21.56
2016-06-06T19:00:25.168Z,21.61
2016-06-06T19:01:24.920Z,21.52
2016-06-06T19:02:39.017Z,21.47
2016-06-06T19:03:24.958Z,21.49
2016-06-06T19:04:24.961Z,21.47
2016-06-06T19:05:24.963Z,21.44
2016-06-06T19:06:24.966Z,21.42
2016-06-06T19:07:25.062Z,21.32
2016-06-06T19:08:24.987Z,21.34
2016-06-06T19:09:25.224Z,21.27
2016-06-06T19:10:25.055Z,21.17
2016-06-06T19:11:25.058Z,21.16
2016-06-06T19:12:25.264Z,21.14
2016-06-06T19:13:24.828Z,21.04
2016-06-06T19:14:25.050Z,21.04
2016-06-06T19:15:24.599Z,21.06
2016-06-06T19:16:26.025Z,20.97
2016-06-06T19:17:25.089Z,21.01
2016-06-06T19:18:25.327Z,20.95
2016-06-06T19:19:25.157Z,20.85
2016-06-06T19:20:39.175Z,20.88
2016-06-06T19:21:25.553Z,20.89
2016-06-06T19:22:25.135Z,20.82
2016-06-06T19:23:25.137Z,20.76
2016-06-06T19:24:25.218Z,20.73
2016-06-06T19:25:25.235Z,20.76
2016-06-06T19:26:39.473Z,20.74
2016-06-06T19:27:25.226Z,20.72
2016-06-06T19:28:25.228Z,20.66
2016-06-06T19:29:25.215Z,20.66
2016-06-06T19:30:25.218Z,20.62
2016-06-06T19:31:25.080Z,20.51
2016-06-06T19:32:25.239Z,20.52
2016-06-06T19:33:25.679Z,20.5
2016-06-06T19:34:26.104Z,20.48
2016-06-06T19:35:25.637Z,20.43
2016-06-06T19:36:25.703Z,20.42
2016-06-06T19:37:25.518Z,20.36
2016-06-06T19:38:25.334Z,20.32
2016-06-06T19:39:25.555Z,20.36
2016-06-06T19:40:25.370Z,20.35
2016-06-06T19:41:25.389Z,20.39
2016-06-06T19:42:25.563Z,20.33
2016-06-06T19:43:25.394Z,20.33
2016-06-06T19:44:25.412Z,20.26
2016-06-06T19:45:25.399Z,20.28
2016-06-06T19:47:25.420Z,20.24
2016-06-06T19:49:26.894Z,20.21
2016-06-06T19:50:24.834Z,20.23
2016-06-06T19:51:39.571Z,20.1
2016-06-06T19:52:25.683Z,20.1
2016-06-06T19:53:25.499Z,20.05
2016-06-06T19:54:25.626Z,20.06
2016-06-06T19:55:25.348Z,19.95
2016-06-06T19:56:25.726Z,20.01
2016-06-06T19:57:25.557Z,19.87
2016-06-06T19:58:25.590Z,20.08
2016-06-06T19:59:25.390Z,20.01
2016-06-06T20:00:25.548Z,19.96
2016-06-06T20:01:25.785Z,19.94
2016-06-06T20:02:25.570Z,19.94
2016-06-06T20:03:26.228Z,19.76
2016-06-06T20:04:25.825Z,19.8
2016-06-06T20:05:26.032Z,19.8
2016-06-06T20:06:25.627Z,19.77
2016-06-06T20:07:25.631Z,19.8
2016-06-06T20:08:26.039Z,19.77
2016-06-06T20:09:25.651Z,19.77
2016-06-06T20:10:25.856Z,19.66
2016-06-06T20:11:28.719Z,19.73
2016-06-06T20:12:25.690Z,19.76
2016-06-06T20:13:39.833Z,19.74
2016-06-06T20:14:25.711Z,19.65
2016-06-06T20:15:25.698Z,19.65
2016-06-06T20:16:25.747Z,19.65
2016-06-06T20:18:25.894Z,19.58
2016-06-06T20:19:25.303Z,19.56
2016-06-06T20:20:40.680Z,19.61
2016-06-06T20:21:39.903Z,19.56
2016-06-06T20:22:25.983Z,19.47
2016-06-06T20:23:25.813Z,19.44
2016-06-06T20:24:25.816Z,19.46
2016-06-06T20:25:25.819Z,19.43
2016-06-06T20:26:25.837Z,19.36
2016-06-06T20:27:26.074Z,19.43
2016-06-06T20:28:26.233Z,19.36
2016-06-06T20:29:26.080Z,19.26
2016-06-06T20:30:25.723Z,19.23
2016-06-06T20:31:25.913Z,19.28
2016-06-06T20:32:25.885Z,19.26
2016-06-06T20:33:26.560Z,19.19
2016-06-06T20:34:26.375Z,19.13
2016-06-06T20:35:26.018Z,19.21
2016-06-06T20:36:25.958Z,19.13
2016-06-06T20:37:25.929Z,19.11
2016-06-06T20:38:26.260Z,19.11
2016-06-06T20:39:25.950Z,19.13
2016-06-06T20:40:25.953Z,19.18
2016-06-06T20:41:26.175Z,18.99
2016-06-06T20:42:25.975Z,19.04
2016-06-06T20:43:26.227Z,18.99
2016-06-06T20:44:26.011Z,18.95
2016-06-06T20:45:25.513Z,18.92
2016-06-06T20:46:26.016Z,18.98
2016-06-06T20:47:25.581Z,18.98
2016-06-06T20:48:26.178Z,18.94
2016-06-06T20:49:26.086Z,18.9
2016-06-06T20:50:27.386Z,18.92
2016-06-06T20:51:27.435Z,18.87
2016-06-06T20:52:27.376Z,18.88
2016-06-06T20:53:26.316Z,18.85
2016-06-06T20:54:40.178Z,18.87
2016-06-06T20:55:28.524Z,18.88
2016-06-06T20:56:26.168Z,18.8
2016-06-06T20:57:26.358Z,18.81
2016-06-06T20:58:26.174Z,18.82
2016-06-06T20:59:26.191Z,18.82
2016-06-06T21:01:26.213Z,18.73
2016-06-06T21:02:26.200Z,18.69
2016-06-06T21:03:26.391Z,18.76
2016-06-06T21:04:26.392Z,18.7
2016-06-06T21:06:26.227Z,18.66
2016-06-06T21:07:26.229Z,18.63
2016-06-06T21:08:26.247Z,18.6
2016-06-06T21:09:26.250Z,18.44
2016-06-06T21:10:26.268Z,18.52
2016-06-06T21:11:26.662Z,18.52
2016-06-06T21:12:26.476Z,18.55
2016-06-06T21:13:26.386Z,18.55
2016-06-06T21:14:26.482Z,18.44
2016-06-06T21:15:26.501Z,18.48
2016-06-06T21:16:26.347Z,18.36
2016-06-06T21:17:26.553Z,18.39
2016-06-06T21:18:26.321Z,18.37
2016-06-06T21:19:26.575Z,18.3
2016-06-06T21:20:27.279Z,18.32
2016-06-06T21:21:26.110Z,18.36
2016-06-06T21:22:26.378Z,18.36
2016-06-06T21:23:26.600Z,18.27
2016-06-06T21:24:26.383Z,18.18
2016-06-06T21:25:26.433Z,18.15
2016-06-06T21:26:26.280Z,18.2
2016-06-06T21:27:26.439Z,18.18
2016-06-06T21:28:26.426Z,18.18
2016-06-06T21:29:26.632Z,18.15
2016-06-06T21:30:26.432Z,18.15
2016-06-06T21:31:26.652Z,18.1
2016-06-06T21:32:26.499Z,18.18
2016-06-06T21:33:26.470Z,18.17
2016-06-06T21:34:26.317Z,18.07
2016-06-06T21:35:26.554Z,18.08
2016-06-06T21:36:26.713Z,18.1
2016-06-06T21:37:26.543Z,17.99
2016-06-06T21:38:26.531Z,18.02
2016-06-06T21:39:26.549Z,18.05
2016-06-06T21:40:26.037Z,18.05
2016-06-06T21:41:40.851Z,17.95
2016-06-06T21:42:26.542Z,17.97
2016-06-06T21:44:26.562Z,17.96
2016-06-06T21:45:26.581Z,17.86
2016-06-06T21:46:26.583Z,17.9
2016-06-06T21:47:27.039Z,17.97
2016-06-06T21:48:26.136Z,17.97
2016-06-06T21:49:26.623Z,17.84
2016-06-06T21:50:27.750Z,17.84
2016-06-06T21:51:26.644Z,17.78
2016-06-06T21:52:26.647Z,17.81
2016-06-06T21:53:26.681Z,17.72
2016-06-06T21:54:26.902Z,17.77
2016-06-06T21:55:26.702Z,17.78
2016-06-06T21:56:26.688Z,17.78
2016-06-06T21:57:26.707Z,17.81
2016-06-06T21:58:27.147Z,17.66